Главная страница
METAR-TAF:

METAR-TAF

Аэропорты :

Massena, Нью-Йорк, США

широта: 44-56-09N, долгота: 074-50-44W, высота над уровнем моря: 66 м

Текущие метеонаблюдения

Эта сводка был подготовлена 1 час и 6 минут назад, в 09:53 UTC
Ветер 7 Узел от юго-западный
Температура 13°C
Влажность 88%
Давление 1012 hPa
Видимость: 11.3 км
ясное небо

METAR: KMSS 240953Z AUTO 23007KT 7SM CLR 13/11 A2989 RMK AO2 SLP122 T01280111

Время: 06:59 (10:59 UTC)

Прогноз

Эта сводка был подготовлена 3 часа и 40 минут назад, в 07:19 UTC
Прогноз действительный с 24-го 07 UTC до 25-го 06 UTC
Ветер 5 Узел от юго-западный
Видимость: 10 км
ясное небо
С 24-го 1600 UTC
Ветер 5 Узел от западно-северо-западный
Видимость: 10 км
Отдельные облака на высоте 8000 фута
С 25-го 0000 UTC
Ветер Узел от северный
Видимость: 10 км
Отдельные облака на высоте 6000 фута

TAF: KMSS 240719Z 2407/2506 22005KT P6SM SKC FM241600 29005KT P6SM SCT080 FM250000 00000KT P6SM SCT060

Метеонаблюдения и прогнозы для более 4000 аэропортов (сводки METAR и TAF).

Имеющиеся станции представлены на карте желтыми и красными точками.

Чтобы увидеть название станции, наведите на нее мышь.

Затем щелкните, чтобы увидеть метеонаблюдения и метеопрогнозы.

Управление картой: чтобы увеличить масштаб, щелкните зеленые кнопки с черным крестиком; чтобы уменьшить масштаб, щелкните зеленую кнопку с тире; для просмотра соседних карт щелкайте зеленые стрелки.


METAR-TAF: